createdAt,value
2022-12-03T00:04:57.732Z,102216.20
2022-12-03T00:10:04.805Z,102219.23
2022-12-03T00:15:13.420Z,102219.59
2022-12-03T00:20:23.133Z,102219.30
2022-12-03T00:25:30.354Z,102214.91
2022-12-03T00:30:37.337Z,102211.02
2022-12-03T00:35:44.175Z,102210.73
2022-12-03T00:40:51.045Z,102208.08
2022-12-03T00:45:57.964Z,102211.73
2022-12-03T00:51:04.959Z,102209.41
2022-12-03T00:56:13.642Z,102208.59
2022-12-03T01:01:21.180Z,102205.00
2022-12-03T01:06:28.504Z,102204.88
2022-12-03T01:11:41.555Z,102204.74
2022-12-03T01:16:49.380Z,102203.16
2022-12-03T01:21:57.000Z,102200.27
2022-12-03T01:27:03.863Z,102201.81
2022-12-03T01:32:18.116Z,102203.62
2022-12-03T01:37:27.244Z,102201.05
2022-12-03T01:42:36.872Z,102203.06
2022-12-03T01:47:43.848Z,102200.44
2022-12-03T01:52:50.765Z,102193.61
2022-12-03T01:58:00.652Z,102186.84
2022-12-03T02:03:13.044Z,102184.11
2022-12-03T02:08:34.744Z,102183.13
2022-12-03T02:13:41.708Z,102183.16
2022-12-03T02:18:49.049Z,102181.11
2022-12-03T02:24:06.244Z,102174.34
2022-12-03T02:29:13.476Z,102168.62
2022-12-03T02:34:38.556Z,102168.34
2022-12-03T02:39:48.716Z,102171.36
2022-12-03T02:45:00.661Z,102169.02
2022-12-03T02:50:13.495Z,102167.01
2022-12-03T02:55:21.181Z,102161.45
2022-12-03T03:00:28.216Z,102160.58
2022-12-03T03:05:37.473Z,102162.85
2022-12-03T03:10:45.629Z,102159.80
2022-12-03T03:15:53.440Z,102162.49
2022-12-03T03:21:00.307Z,102162.59
2022-12-03T03:26:10.770Z,102163.61
2022-12-03T03:31:22.702Z,102166.09
2022-12-03T03:36:29.691Z,102165.78
2022-12-03T03:41:38.082Z,102161.71
2022-12-03T03:46:45.322Z,102158.02
2022-12-03T03:51:52.375Z,102154.77
2022-12-03T03:56:59.379Z,102149.19
2022-12-03T04:02:06.279Z,102145.44
2022-12-03T04:07:13.103Z,102143.66
2022-12-03T04:12:37.621Z,102141.62
2022-12-03T04:17:44.460Z,102141.81
2022-12-03T04:22:51.369Z,102145.44
2022-12-03T04:28:24.141Z,102140.06
2022-12-03T04:33:48.904Z,102136.64
2022-12-03T04:38:55.752Z,102137.34
2022-12-03T04:44:19.496Z,102135.21
2022-12-03T04:49:26.379Z,102135.35
2022-12-03T04:54:33.439Z,102131.79
2022-12-03T04:59:40.359Z,102132.02
2022-12-03T05:04:47.306Z,102127.80
2022-12-03T05:09:56.090Z,102129.42
2022-12-03T05:15:02.975Z,102128.89
2022-12-03T05:20:30.193Z,102121.90
2022-12-03T05:25:37.083Z,102120.10
2022-12-03T05:30:44.336Z,102114.83
2022-12-03T05:35:51.219Z,102108.84
2022-12-03T05:40:58.130Z,102106.86
2022-12-03T05:46:05.030Z,102103.90
2022-12-03T05:51:11.951Z,102100.96
2022-12-03T05:56:18.862Z,102094.88
2022-12-03T06:01:26.072Z,102097.60
2022-12-03T06:06:33.011Z,102092.33
2022-12-03T06:11:40.805Z,102090.88
2022-12-03T06:16:47.691Z,102091.38
2022-12-03T06:21:54.509Z,102094.98
2022-12-03T06:27:01.368Z,102090.70
2022-12-03T06:32:08.678Z,102094.30
2022-12-03T06:37:15.710Z,102095.04
2022-12-03T06:42:22.667Z,102098.58
2022-12-03T06:47:29.577Z,102103.50
2022-12-03T06:52:36.893Z,102102.99
2022-12-03T06:57:43.775Z,102100.13
2022-12-03T07:02:50.843Z,102095.23
2022-12-03T07:07:57.765Z,102095.04
2022-12-03T07:13:04.750Z,102092.41
2022-12-03T07:18:11.593Z,102088.66
2022-12-03T07:23:18.513Z,102085.05
2022-12-03T07:28:25.453Z,102086.98
2022-12-03T07:33:32.491Z,102087.61
2022-12-03T07:38:39.611Z,102083.81
2022-12-03T07:43:46.573Z,102086.98
2022-12-03T07:48:53.618Z,102089.16
2022-12-03T07:54:00.639Z,102091.95
2022-12-03T07:59:07.578Z,102088.56
2022-12-03T08:04:15.025Z,102089.63
2022-12-03T08:09:21.940Z,102086.25
2022-12-03T08:14:30.904Z,102085.13
2022-12-03T08:19:37.780Z,102082.90
2022-12-03T08:24:45.284Z,102082.55
2022-12-03T08:29:55.298Z,102073.84
2022-12-03T08:35:10.368Z,102067.88
2022-12-03T08:40:34.634Z,102067.10
2022-12-03T08:45:44.384Z,102065.27
2022-12-03T08:50:51.462Z,102065.60
2022-12-03T08:56:00.843Z,102064.45
2022-12-03T09:01:26.122Z,102067.84
2022-12-03T09:06:33.052Z,102075.36
2022-12-03T09:11:40.569Z,102072.45
2022-12-03T09:16:48.030Z,102073.39
2022-12-03T09:21:55.565Z,102074.46
2022-12-03T09:27:02.457Z,102072.23
2022-12-03T09:32:13.689Z,102070.26
2022-12-03T09:37:23.623Z,102068.91
2022-12-03T09:42:30.630Z,102066.52
2022-12-03T09:47:37.762Z,102066.70
2022-12-03T09:52:45.318Z,102062.11
2022-12-03T09:57:52.345Z,102063.54
2022-12-03T10:03:03.108Z,102059.70
2022-12-03T10:08:12.809Z,102059.05
2022-12-03T10:13:26.065Z,102055.13
2022-12-03T10:18:41.191Z,102048.25
2022-12-03T10:23:55.182Z,102045.16
2022-12-03T10:29:02.356Z,102036.94
2022-12-03T10:34:10.201Z,102030.15
2022-12-03T10:39:18.081Z,102022.73
2022-12-03T10:44:25.774Z,102017.45
2022-12-03T10:49:33.068Z,102011.65
2022-12-03T10:54:39.969Z,102003.81
2022-12-03T10:59:47.126Z,102001.17
2022-12-03T11:04:55.593Z,101999.38
2022-12-03T11:10:02.861Z,101993.64
2022-12-03T11:15:17.873Z,101990.30
2022-12-03T11:21:06.672Z,101984.63
2022-12-03T11:26:18.903Z,101978.00
2022-12-03T11:31:42.053Z,101971.00
2022-12-03T11:37:20.241Z,101971.18
2022-12-03T11:42:41.858Z,101966.74
2022-12-03T11:48:03.024Z,101970.30
2022-12-03T11:53:18.103Z,101967.16
2022-12-03T11:58:27.968Z,101967.03
2022-12-03T12:03:37.345Z,101963.04
2022-12-03T12:08:57.935Z,101959.94
2022-12-03T12:14:05.844Z,101959.29
2022-12-03T12:19:31.421Z,101957.44
2022-12-03T12:24:48.558Z,101951.36
2022-12-03T12:29:58.212Z,101949.30
2022-12-03T12:35:17.065Z,101949.55
2022-12-03T12:40:26.944Z,101954.84
2022-12-03T12:45:41.274Z,101956.19
2022-12-03T12:50:50.029Z,101957.72
2022-12-03T12:55:59.879Z,101953.83
2022-12-03T13:01:13.649Z,101953.38
2022-12-03T13:06:24.860Z,101951.08
2022-12-03T13:11:41.365Z,101944.84
2022-12-03T13:16:49.545Z,101941.20
2022-12-03T13:21:58.133Z,101939.46
2022-12-03T13:27:21.586Z,101942.42
2022-12-03T13:32:32.533Z,101939.20
2022-12-03T13:38:02.907Z,101939.80
2022-12-03T13:43:15.460Z,101944.86
2022-12-03T13:48:25.365Z,101945.55
2022-12-03T13:53:41.258Z,101942.98
2022-12-03T13:58:48.170Z,101946.00
2022-12-03T14:03:55.272Z,101944.55
2022-12-03T14:09:02.227Z,101945.02
2022-12-03T14:14:09.217Z,101942.73
2022-12-03T14:19:16.122Z,101939.58
2022-12-03T14:24:22.996Z,101935.96
2022-12-03T14:29:30.087Z,101931.13
2022-12-03T14:34:36.957Z,101928.16
2022-12-03T14:39:43.973Z,101924.84
2022-12-03T14:44:52.399Z,101919.88
2022-12-03T14:50:00.035Z,101921.35
2022-12-03T14:55:07.538Z,101924.26
2022-12-03T15:00:18.179Z,101927.13
2022-12-03T15:05:28.821Z,101927.23
2022-12-03T15:10:36.307Z,101929.06
2022-12-03T15:15:43.506Z,101930.21
2022-12-03T15:20:50.706Z,101927.48
2022-12-03T15:25:57.660Z,101921.75
2022-12-03T15:31:04.619Z,101917.55
2022-12-03T15:36:12.273Z,101918.88
2022-12-03T15:41:24.372Z,101919.52
2022-12-03T15:46:32.200Z,101924.67
2022-12-03T15:51:37.548Z,101927.20
2022-12-03T15:56:44.400Z,101924.16
2022-12-03T16:01:51.493Z,101927.73
2022-12-03T16:06:58.328Z,101926.23
2022-12-03T16:12:05.717Z,101929.02
2022-12-03T16:17:12.543Z,101928.56
2022-12-03T16:22:19.611Z,101928.80
2022-12-03T16:27:26.457Z,101924.05
2022-12-03T16:32:33.317Z,101926.10
2022-12-03T16:37:40.623Z,101928.42
2022-12-03T16:42:47.681Z,101928.74
2022-12-03T16:47:54.715Z,101931.04
2022-12-03T16:53:01.722Z,101929.63
2022-12-03T16:58:09.299Z,101930.88
2022-12-03T17:03:17.975Z,101926.90
2022-12-03T17:08:25.116Z,101926.44
2022-12-03T17:13:31.985Z,101930.95
2022-12-03T17:18:38.803Z,101932.04
2022-12-03T17:23:48.957Z,101934.50
2022-12-03T17:28:55.803Z,101935.16
2022-12-03T17:34:02.727Z,101934.29
2022-12-03T17:39:09.633Z,101932.66
2022-12-03T17:44:20.980Z,101929.73
2022-12-03T17:49:31.577Z,101930.81
2022-12-03T17:55:08.526Z,101932.73
2022-12-03T18:00:06.984Z,101928.39
2022-12-03T18:05:19.465Z,101927.36
2022-12-03T18:10:26.499Z,101925.32
2022-12-03T18:15:34.033Z,101927.08
2022-12-03T18:20:41.188Z,101926.56
2022-12-03T18:25:48.064Z,101925.58
2022-12-03T18:30:55.080Z,101925.64
2022-12-03T18:36:02.006Z,101920.48
2022-12-03T18:41:09.017Z,101913.02
2022-12-03T18:46:45.109Z,101912.91
2022-12-03T18:51:44.462Z,101916.72
2022-12-03T18:56:51.517Z,101925.42
2022-12-03T19:01:58.503Z,101920.90
2022-12-03T19:07:05.419Z,101925.73
2022-12-03T19:12:14.734Z,101927.88
2022-12-03T19:17:22.619Z,101932.48
2022-12-03T19:22:29.988Z,101930.20
2022-12-03T19:27:36.965Z,101925.61
2022-12-03T19:32:45.358Z,101928.46
2022-12-03T19:37:52.413Z,101923.00
2022-12-03T19:42:59.342Z,101921.09
2022-12-03T19:48:06.692Z,101935.73
2022-12-03T19:53:13.544Z,101925.33
2022-12-03T19:58:20.407Z,101928.34
2022-12-03T20:03:27.237Z,101925.33
2022-12-03T20:08:37.392Z,101926.50
2022-12-03T20:13:49.276Z,101921.88
2022-12-03T20:19:02.191Z,101923.52
2022-12-03T20:24:11.476Z,101932.25
2022-12-03T20:29:18.378Z,101933.58
2022-12-03T20:34:25.374Z,101931.92
2022-12-03T20:39:32.674Z,101934.31
2022-12-03T20:44:39.659Z,101928.90
2022-12-03T20:49:46.582Z,101929.81
2022-12-03T20:54:53.450Z,101929.33
2022-12-03T21:00:00.370Z,101924.18
2022-12-03T21:05:08.021Z,101923.30
2022-12-03T21:10:29.264Z,101924.27
2022-12-03T21:15:36.151Z,101924.46
2022-12-03T21:20:43.912Z,101921.87
2022-12-03T21:25:59.362Z,101922.44
2022-12-03T21:31:12.624Z,101920.64
2022-12-03T21:36:19.855Z,101920.94
2022-12-03T21:41:29.788Z,101922.66
2022-12-03T21:47:12.136Z,101919.61
2022-12-03T21:52:03.569Z,101923.30
2022-12-03T21:57:10.585Z,101924.21
2022-12-03T22:02:17.530Z,101922.73
2022-12-03T22:07:24.579Z,101918.31
2022-12-03T22:12:31.786Z,101917.27
2022-12-03T22:17:39.252Z,101916.06
2022-12-03T22:22:46.531Z,101914.91
2022-12-03T22:27:53.416Z,101908.72
2022-12-03T22:33:00.275Z,101909.19
2022-12-03T22:38:07.133Z,101908.34
2022-12-03T22:43:13.986Z,101908.09
2022-12-03T22:48:20.919Z,101904.27
2022-12-03T22:53:27.781Z,101899.90
2022-12-03T22:58:34.904Z,101896.67
2022-12-03T23:03:41.836Z,101890.12
2022-12-03T23:08:48.934Z,101884.42
2022-12-03T23:13:56.412Z,101877.91
2022-12-03T23:19:04.865Z,101875.54
2022-12-03T23:24:12.810Z,101871.96
2022-12-03T23:29:18.125Z,101866.11
2022-12-03T23:34:24.975Z,101856.00
2022-12-03T23:39:31.926Z,101858.32
2022-12-03T23:44:39.229Z,101861.02
2022-12-03T23:49:46.141Z,101859.30
2022-12-03T23:54:52.991Z,101863.48
2022-12-03T23:59:59.871Z,101863.75
